Time;durP1;ratioP1;P1;durP2;ratioP2;P2;SDS_P1;SDS_P2;PMS_P1;PMS_P2;Temp;Humidity;BMP_temperature;BMP_pressure;BME280_temperature;BME280_humidity;BME280_pressure;Samples;Min_cycle;Max_cycle;Signal;HPM_P1;HPM_P2
2022/08/04 00:01:49;;;;;;;2.88;1.50;;;24.70;99.90;;;;;;5092541;28;20172;-54
2022/08/04 00:04:43;;;;;;;6.25;1.83;;;24.70;99.90;;;;;;5092415;28;20232;-55
2022/08/04 00:07:23;;;;;;;4.00;1.60;;;24.70;99.90;;;;;;5092467;28;20174;-52
2022/08/04 00:09:56;;;;;;;1.55;1.42;;;24.70;99.90;;;;;;5092538;28;20181;-55
2022/08/04 00:12:25;;;;;;;5.93;1.92;;;24.70;99.90;;;;;;5092399;28;20205;-55
2022/08/04 00:14:56;;;;;;;6.53;1.70;;;24.70;99.90;;;;;;5092497;28;20181;-55
2022/08/04 00:17:27;;;;;;;3.42;1.60;;;24.60;99.90;;;;;;5092217;28;20162;-52
2022/08/04 00:19:57;;;;;;;3.67;1.58;;;24.60;99.90;;;;;;5092141;28;20165;-51
2022/08/04 00:22:28;;;;;;;4.30;1.55;;;24.50;99.90;;;;;;5092053;28;20201;-54
2022/08/04 00:24:54;;;;;;;3.60;2.00;;;24.50;99.90;;;;;;5091994;28;20252;-55
2022/08/04 00:27:20;;;;;;;4.38;1.60;;;24.50;99.90;;;;;;5097742;28;20257;-55
2022/08/04 00:29:47;;;;;;;2.22;1.70;;;24.40;99.90;;;;;;5098749;28;20587;-55
2022/08/04 00:32:13;;;;;;;4.85;1.60;;;24.40;99.90;;;;;;5098752;28;20192;-54
2022/08/04 00:34:39;;;;;;;4.80;1.48;;;24.40;99.90;;;;;;5098763;28;20681;-54
2022/08/04 00:37:06;;;;;;;4.20;1.88;;;24.40;99.90;;;;;;5099028;28;20189;-54
2022/08/04 00:39:32;;;;;;;7.80;2.20;;;24.40;99.90;;;;;;5098592;28;20263;-55
2022/08/04 00:42:14;;;;;;;5.40;1.98;;;24.40;99.90;;;;;;5098615;28;21057;-55
2022/08/04 00:45:06;;;;;;;2.03;1.70;;;24.30;99.90;;;;;;5098706;28;20165;-54
2022/08/04 00:47:57;;;;;;;5.43;1.70;;;24.20;99.90;;;;;;5098584;28;20157;-55
2022/08/04 00:50:43;;;;;;;3.65;1.70;;;24.10;99.90;;;;;;5062158;28;20640;-55
2022/08/04 00:53:33;;;;;;;3.20;1.75;;;24.00;99.90;;;;;;5098564;28;20179;-53
2022/08/04 00:56:04;;;;;;;4.43;2.25;;;24.00;99.90;;;;;;5098767;28;20192;-54
2022/08/04 00:58:49;;;;;;;4.28;2.10;;;24.00;99.90;;;;;;5098132;28;20157;-52
2022/08/04 01:01:47;;;;;;;5.07;1.70;;;24.10;99.90;;;;;;5098636;28;20173;-55
2022/08/04 01:04:35;;;;;;;6.43;1.80;;;24.10;99.90;;;;;;5097813;28;20185;-54
2022/08/04 01:07:29;;;;;;;6.00;2.08;;;24.10;99.90;;;;;;5098353;28;20573;-54
2022/08/04 01:10:44;;;;;;;4.35;1.73;;;24.10;99.90;;;;;;5098567;28;20172;-47
2022/08/04 01:13:25;;;;;;;3.35;2.08;;;24.00;99.90;;;;;;5025993;28;20219;-47
2022/08/04 01:16:12;;;;;;;3.95;1.70;;;23.90;99.90;;;;;;5098428;28;20192;-48
2022/08/04 01:18:49;;;;;;;5.03;1.88;;;23.80;99.90;;;;;;5098378;28;20165;-47
2022/08/04 01:21:43;;;;;;;4.30;2.17;;;23.70;99.90;;;;;;5098525;28;20168;-49
2022/08/04 01:24:45;;;;;;;3.45;1.70;;;23.70;99.90;;;;;;5098282;28;20175;-46
2022/08/04 01:27:47;;;;;;;6.30;2.10;;;23.70;99.90;;;;;;5098249;28;20203;-50
2022/08/04 01:30:13;;;;;;;4.13;2.03;;;23.60;99.90;;;;;;5098143;28;20692;-48
2022/08/04 01:32:50;;;;;;;6.63;2.00;;;23.60;99.90;;;;;;5098158;28;20244;-46
2022/08/04 01:35:24;;;;;;;3.40;1.98;;;23.70;99.90;;;;;;5098192;28;20242;-48
2022/08/04 01:38:12;;;;;;;4.35;1.77;;;23.70;99.90;;;;;;5095623;28;20558;-51
2022/08/04 01:40:41;;;;;;;2.75;1.50;;;23.60;99.90;;;;;;5094927;28;20196;-49
2022/08/04 01:43:09;;;;;;;4.25;1.80;;;23.60;99.90;;;;;;5095173;28;20672;-52
2022/08/04 01:45:36;;;;;;;2.40;1.60;;;23.40;99.90;;;;;;5095197;28;20181;-48
2022/08/04 01:48:03;;;;;;;4.68;2.03;;;23.40;99.90;;;;;;5095043;28;20180;-50
2022/08/04 01:50:34;;;;;;;3.53;2.30;;;23.40;99.90;;;;;;5094707;28;20191;-50
2022/08/04 01:53:01;;;;;;;1.90;1.70;;;23.40;99.90;;;;;;5094835;28;20157;-53
2022/08/04 01:55:28;;;;;;;3.17;1.85;;;23.50;99.90;;;;;;5094743;28;20200;-50
2022/08/04 01:58:00;;;;;;;3.30;2.00;;;23.40;99.90;;;;;;5094893;28;20256;-50
2022/08/04 02:00:27;;;;;;;8.27;2.05;;;23.40;99.90;;;;;;5094563;28;20162;-48
2022/08/04 02:02:55;;;;;;;4.80;2.20;;;23.40;99.90;;;;;;5094460;28;20613;-47
2022/08/04 02:05:23;;;;;;;6.57;2.17;;;23.50;99.90;;;;;;5094720;28;20172;-51
2022/08/04 02:08:21;;;;;;;5.70;2.40;;;23.40;99.90;;;;;;5094496;28;20169;-51
2022/08/04 02:11:14;;;;;;;2.72;1.67;;;23.40;99.90;;;;;;5094414;28;20165;-54
2022/08/04 02:13:43;;;;;;;6.07;1.90;;;23.40;99.90;;;;;;5094341;28;20185;-53
2022/08/04 02:16:26;;;;;;;3.70;2.00;;;23.40;99.90;;;;;;5094316;28;20175;-53
2022/08/04 02:19:35;;;;;;;1.80;1.70;;;23.40;99.90;;;;;;5094296;28;20169;-54
2022/08/04 02:22:07;;;;;;;5.68;1.90;;;23.40;99.90;;;;;;5083113;28;20551;-52
2022/08/04 02:24:41;;;;;;;6.72;1.73;;;23.40;99.90;;;;;;5094663;28;20205;-54
2022/08/04 02:27:07;;;;;;;3.88;1.45;;;23.30;99.90;;;;;;5094526;28;20168;-53
2022/08/04 02:29:45;;;;;;;4.80;1.95;;;23.30;99.90;;;;;;5094297;28;20200;-54
2022/08/04 02:32:25;;;;;;;4.13;1.98;;;23.20;99.90;;;;;;5094215;28;20173;-54
2022/08/04 02:35:04;;;;;;;5.53;2.33;;;23.10;99.90;;;;;;5093957;28;20244;-53
2022/08/04 02:37:32;;;;;;;4.78;2.35;;;23.00;99.90;;;;;;5092565;28;20158;-54
2022/08/04 02:40:00;;;;;;;3.92;1.90;;;23.00;99.90;;;;;;5093831;28;20872;-51
2022/08/04 02:42:27;;;;;;;6.20;2.05;;;23.00;99.90;;;;;;5093987;28;20200;-54
2022/08/04 02:44:56;;;;;;;4.88;2.08;;;23.00;99.90;;;;;;5093660;28;20177;-53
2022/08/04 02:47:24;;;;;;;3.67;1.88;;;22.90;99.90;;;;;;5093738;28;20595;-52
2022/08/04 02:49:51;;;;;;;6.78;2.00;;;22.90;99.90;;;;;;5093498;28;20190;-52
2022/08/04 02:52:18;;;;;;;5.40;1.90;;;22.80;99.90;;;;;;5093574;28;20215;-52
2022/08/04 02:54:46;;;;;;;3.25;2.10;;;22.80;99.90;;;;;;5093587;28;20203;-54
2022/08/04 02:57:13;;;;;;;4.70;2.00;;;22.80;99.90;;;;;;5075232;28;20206;-54
2022/08/04 02:59:58;;;;;;;2.72;1.63;;;22.80;99.90;;;;;;5093439;28;20168;-54
2022/08/04 03:02:39;;;;;;;4.47;1.75;;;22.80;99.90;;;;;;5093277;28;20413;-55
2022/08/04 03:05:17;;;;;;;4.85;2.25;;;22.70;99.90;;;;;;5093606;28;20188;-54
2022/08/04 03:07:58;;;;;;;3.95;1.90;;;22.80;99.90;;;;;;5093219;28;20178;-53
2022/08/04 03:10:48;;;;;;;3.22;2.30;;;22.80;99.90;;;;;;5093187;28;20176;-51
2022/08/04 03:13:26;;;;;;;2.72;2.00;;;22.80;99.90;;;;;;5093041;28;20753;-51
2022/08/04 03:15:57;;;;;;;2.47;1.85;;;22.80;99.90;;;;;;5093439;28;20513;-49
2022/08/04 03:18:32;;;;;;;3.83;2.00;;;22.50;99.90;;;;;;5093135;28;20177;-49
2022/08/04 03:21:33;;;;;;;9.13;2.35;;;22.30;99.90;;;;;;5092967;28;20160;-49
2022/08/04 03:24:17;;;;;;;6.55;2.00;;;22.30;99.90;;;;;;5093281;28;20652;-52
2022/08/04 03:26:51;;;;;;;7.50;2.47;;;22.30;99.90;;;;;;5092921;28;20210;-47
2022/08/04 03:29:42;;;;;;;3.88;2.00;;;22.20;99.90;;;;;;5093099;28;20175;-50
2022/08/04 03:32:25;;;;;;;6.50;2.10;;;22.20;99.90;;;;;;5092789;28;20168;-47
2022/08/04 03:35:09;;;;;;;4.70;2.22;;;22.20;99.90;;;;;;5092722;28;20515;-49
2022/08/04 03:37:38;;;;;;;4.63;2.55;;;22.20;99.90;;;;;;5093010;28;20165;-49
2022/08/04 03:40:26;;;;;;;3.75;2.55;;;22.20;99.90;;;;;;5092956;28;20180;-51
2022/08/04 03:43:26;;;;;;;5.35;2.70;;;22.20;99.90;;;;;;5092613;28;20197;-48
2022/08/04 03:46:21;;;;;;;7.65;2.55;;;22.20;99.90;;;;;;5092646;28;20240;-48
2022/08/04 03:49:07;;;;;;;7.00;2.67;;;22.20;99.90;;;;;;5054685;28;20179;-48
2022/08/04 03:55:16;;;;;;;9.30;2.90;;;22.20;99.90;;;;;;5092612;28;20234;-50
2022/08/04 03:58:05;;;;;;;4.95;2.47;;;22.20;99.90;;;;;;5092313;28;20537;-49
2022/08/04 04:00:56;;;;;;;2.88;2.13;;;22.20;99.90;;;;;;5091475;28;20172;-46
2022/08/04 04:03:59;;;;;;;6.72;2.67;;;22.20;99.90;;;;;;5092277;28;20265;-46
2022/08/04 04:06:52;;;;;;;7.70;2.50;;;22.10;99.90;;;;;;5092210;28;20207;-48
2022/08/04 04:09:21;;;;;;;4.47;2.30;;;22.10;99.90;;;;;;5092157;28;20252;-49
2022/08/04 04:12:10;;;;;;;5.28;2.20;;;22.10;99.90;;;;;;5092128;28;20217;-50
2022/08/04 04:15:00;;;;;;;6.43;2.58;;;22.10;99.90;;;;;;5092417;28;20249;-49
2022/08/04 04:18:03;;;;;;;3.50;2.05;;;22.00;99.90;;;;;;5092072;28;20196;-46
2022/08/04 04:20:37;;;;;;;8.52;2.95;;;22.00;99.90;;;;;;5092135;28;20165;-50
2022/08/04 04:23:31;;;;;;;4.07;2.10;;;22.10;99.90;;;;;;5092403;28;20257;-52
2022/08/04 04:26:30;;;;;;;7.32;2.65;;;22.10;99.90;;;;;;5091978;28;20625;-53
2022/08/04 04:29:23;;;;;;;3.03;2.28;;;22.10;99.90;;;;;;5092008;28;20204;-46
2022/08/04 04:31:57;;;;;;;5.90;2.22;;;22.10;99.90;;;;;;5091988;28;20214;-46
2022/08/04 04:34:41;;;;;;;4.32;1.88;;;22.10;99.90;;;;;;5092021;28;20165;-47
2022/08/04 04:37:25;;;;;;;4.35;2.35;;;22.10;99.90;;;;;;5091953;28;20200;-46
2022/08/04 04:39:56;;;;;;;5.78;2.35;;;22.00;99.90;;;;;;5091861;28;20173;-47
2022/08/04 04:42:38;;;;;;;7.50;2.45;;;22.10;99.90;;;;;;5091828;28;20574;-48
2022/08/04 04:45:22;;;;;;;8.05;2.20;;;22.10;99.90;;;;;;5092381;28;20170;-46
2022/08/04 04:48:04;;;;;;;4.85;2.10;;;22.20;99.90;;;;;;5091750;28;20172;-49
2022/08/04 04:51:07;;;;;;;3.03;2.13;;;22.20;99.90;;;;;;5091783;28;20184;-49
2022/08/04 04:54:05;;;;;;;6.07;2.08;;;22.20;99.90;;;;;;5092168;28;20505;-50
2022/08/04 04:56:46;;;;;;;4.07;2.03;;;22.10;99.90;;;;;;5091759;28;20227;-50
2022/08/04 04:59:17;;;;;;;7.80;2.45;;;22.10;99.90;;;;;;5091628;28;20169;-47
2022/08/04 05:02:05;;;;;;;4.63;2.25;;;22.10;99.90;;;;;;5091526;28;20192;-47
2022/08/04 05:05:04;;;;;;;7.07;2.28;;;22.20;99.90;;;;;;5091853;28;20192;-47
2022/08/04 05:07:56;;;;;;;7.93;2.42;;;22.20;99.90;;;;;;5091568;28;20154;-47
2022/08/04 05:10:59;;;;;;;5.50;2.67;;;22.30;99.90;;;;;;5091501;28;20628;-47
2022/08/04 05:13:46;;;;;;;4.80;2.45;;;22.40;99.90;;;;;;5025916;28;20185;-49
2022/08/04 05:16:19;;;;;;;6.65;3.08;;;22.60;99.90;;;;;;5095426;28;20165;-47
2022/08/04 05:19:07;;;;;;;5.10;2.65;;;22.60;99.90;;;;;;5095368;28;20203;-47
2022/08/04 05:21:40;;;;;;;8.05;2.63;;;22.80;99.90;;;;;;5095359;28;20640;-47
2022/08/04 05:24:10;;;;;;;5.47;2.90;;;22.90;99.90;;;;;;5095832;28;20215;-47
2022/08/04 05:26:44;;;;;;;3.65;2.53;;;22.90;99.90;;;;;;5095573;28;20162;-47
2022/08/04 05:29:20;;;;;;;4.45;2.50;;;23.00;99.90;;;;;;5095347;28;20169;-48
2022/08/04 05:31:51;;;;;;;6.65;3.05;;;23.00;99.90;;;;;;5095105;28;20157;-48
2022/08/04 05:34:34;;;;;;;6.60;2.60;;;23.30;99.90;;;;;;5095078;28;20153;-48
2022/08/04 05:37:06;;;;;;;6.75;3.00;;;23.50;99.90;;;;;;5076937;28;20173;-48
2022/08/04 05:39:41;;;;;;;7.53;2.60;;;23.60;99.90;;;;;;5077196;28;20166;-49
2022/08/04 05:42:08;;;;;;;4.07;2.60;;;23.60;99.90;;;;;;5094833;28;20558;-48
2022/08/04 05:44:35;;;;;;;7.70;2.92;;;23.60;99.90;;;;;;5095164;28;20176;-48
2022/08/04 05:47:03;;;;;;;6.10;2.75;;;23.70;99.90;;;;;;5095099;28;20161;-49
2022/08/04 05:49:29;;;;;;;8.07;3.40;;;23.70;99.90;;;;;;5094765;28;20161;-49
2022/08/04 05:51:58;;;;;;;6.80;2.55;;;23.70;99.90;;;;;;5094699;28;20169;-48
2022/08/04 05:54:24;;;;;;;4.38;2.63;;;23.90;99.90;;;;;;5094748;28;20157;-48
2022/08/04 05:56:50;;;;;;;6.05;3.03;;;24.00;99.90;;;;;;5094669;28;20149;-49
2022/08/04 05:59:18;;;;;;;7.13;3.53;;;24.00;99.90;;;;;;5094629;28;20161;-47
2022/08/04 06:01:46;;;;;;;7.45;3.58;;;24.00;99.90;;;;;;5094699;28;20180;-50
2022/08/04 06:04:13;;;;;;;3.13;2.22;;;24.10;99.90;;;;;;5094742;28;20173;-46
2022/08/04 06:06:39;;;;;;;6.55;2.88;;;24.20;99.90;;;;;;5094542;28;20161;-53
2022/08/04 06:09:05;;;;;;;4.82;2.97;;;24.30;99.90;;;;;;5094865;28;20696;-54
2022/08/04 06:11:33;;;;;;;5.57;3.20;;;24.40;99.90;;;;;;5094556;28;20225;-54
2022/08/04 06:14:03;;;;;;;3.97;2.75;;;24.40;99.90;;;;;;5094342;28;20201;-51
2022/08/04 06:16:42;;;;;;;3.85;2.42;;;24.50;99.90;;;;;;5094525;28;20189;-54
2022/08/04 06:19:11;;;;;;;3.92;2.55;;;24.60;99.90;;;;;;5094445;28;20504;-52
2022/08/04 06:21:40;;;;;;;3.67;2.70;;;24.70;99.90;;;;;;5094167;28;20167;-52
2022/08/04 06:24:10;;;;;;;3.17;2.30;;;24.70;99.90;;;;;;5093912;28;20169;-47
2022/08/04 06:26:36;;;;;;;3.08;2.40;;;24.80;99.90;;;;;;5094294;28;20183;-48
2022/08/04 06:29:04;;;;;;;6.47;2.58;;;25.00;99.90;;;;;;5094769;28;20204;-47
2022/08/04 06:34:18;;;;;;;5.90;2.78;;;25.20;99.90;;;;;;5062654;28;20208;-47
2022/08/04 06:36:46;;;;;;;6.63;3.08;;;25.30;99.90;;;;;;5094185;28;20195;-47
2022/08/04 06:39:12;;;;;;;3.88;2.55;;;25.30;99.90;;;;;;5093886;28;20259;-47
2022/08/04 06:41:38;;;;;;;8.70;2.88;;;25.30;99.90;;;;;;5093824;28;20169;-47
2022/08/04 06:44:07;;;;;;;5.45;2.65;;;25.60;99.90;;;;;;5094121;28;20218;-47
2022/08/04 06:46:35;;;;;;;5.80;3.17;;;25.70;99.90;;;;;;5094006;28;20304;-48
2022/08/04 06:49:02;;;;;;;6.13;3.05;;;25.80;99.90;;;;;;5093934;28;20785;-47
2022/08/04 06:51:30;;;;;;;4.85;3.15;;;25.90;99.90;;;;;;5093780;28;20184;-49
2022/08/04 06:53:56;;;;;;;6.78;2.70;;;26.00;99.90;;;;;;5093516;28;20246;-47
2022/08/04 06:56:24;;;;;;;11.10;3.17;;;26.20;99.90;;;;;;5093516;28;20168;-48
2022/08/04 06:58:54;;;;;;;5.45;2.60;;;26.30;99.90;;;;;;5093703;28;20169;-48
2022/08/04 07:01:21;;;;;;;5.57;3.10;;;26.20;99.90;;;;;;5093365;28;20236;-47
2022/08/04 07:03:48;;;;;;;6.10;3.00;;;26.40;99.90;;;;;;5093173;28;20203;-48
2022/08/04 07:06:14;;;;;;;4.97;2.90;;;26.50;99.90;;;;;;5093422;28;20269;-46
2022/08/04 07:08:39;;;;;;;11.15;3.72;;;26.60;99.90;;;;;;5093220;28;20165;-48
2022/08/04 07:11:05;;;;;;;5.78;2.80;;;26.80;99.90;;;;;;5093524;28;20210;-47
2022/08/04 07:13:31;;;;;;;5.72;2.80;;;26.80;99.90;;;;;;5093745;28;20165;-47
2022/08/04 07:15:59;;;;;;;5.47;2.80;;;26.90;99.90;;;;;;5093405;28;20234;-48
2022/08/04 07:18:25;;;;;;;4.43;2.42;;;27.10;99.90;;;;;;5093057;28;20538;-48
2022/08/04 07:20:51;;;;;;;8.60;2.55;;;27.20;99.90;;;;;;5075029;28;20259;-47
2022/08/04 07:23:22;;;;;;;4.28;2.40;;;27.40;99.90;;;;;;5092927;28;20232;-48
2022/08/04 07:25:56;;;;;;;7.90;2.78;;;27.40;99.90;;;;;;5093159;28;20526;-46
2022/08/04 07:28:25;;;;;;;6.35;2.88;;;27.60;99.90;;;;;;5092915;28;20213;-48
2022/08/04 07:30:52;;;;;;;7.03;2.50;;;27.70;99.90;;;;;;5092810;28;20699;-47
2022/08/04 07:33:19;;;;;;;7.28;2.97;;;27.90;99.90;;;;;;5092819;28;20213;-47
2022/08/04 07:35:47;;;;;;;3.80;3.10;;;27.90;99.90;;;;;;5091929;28;20165;-49
2022/08/04 07:38:12;;;;;;;7.30;2.95;;;28.00;99.90;;;;;;5092702;28;20214;-47
2022/08/04 07:40:39;;;;;;;4.03;2.80;;;27.90;99.90;;;;;;5092521;28;20201;-47
2022/08/04 07:43:05;;;;;;;3.35;2.55;;;28.00;99.90;;;;;;5092894;28;20200;-47
2022/08/04 07:45:31;;;;;;;8.40;3.13;;;28.10;99.90;;;;;;5092877;28;20161;-48
2022/08/04 07:47:57;;;;;;;7.93;2.90;;;28.20;99.90;;;;;;5092482;28;20171;-48
2022/08/04 07:50:25;;;;;;;7.65;3.30;;;28.20;99.90;;;;;;5092411;28;20169;-47
2022/08/04 07:52:51;;;;;;;5.43;2.50;;;28.30;99.90;;;;;;5092316;28;20169;-47
2022/08/04 07:55:18;;;;;;;7.00;3.30;;;28.50;99.90;;;;;;5092381;28;20167;-48
2022/08/04 07:57:43;;;;;;;12.20;2.78;;;28.50;99.90;;;;;;5092425;28;20214;-50
2022/08/04 08:00:13;;;;;;;6.13;3.58;;;28.50;99.90;;;;;;5092372;28;20192;-48
2022/08/04 08:02:40;;;;;;;9.20;3.03;;;28.60;99.90;;;;;;5092432;28;20243;-48
2022/08/04 08:05:08;;;;;;;7.82;2.80;;;28.80;99.90;;;;;;5092288;28;20161;-47
2022/08/04 08:07:34;;;;;;;12.88;3.00;;;28.90;99.90;;;;;;5092857;28;20362;-48
2022/08/04 08:10:00;;;;;;;5.22;2.80;;;29.10;99.90;;;;;;5092502;28;20636;-47
2022/08/04 08:12:26;;;;;;;4.93;3.00;;;29.30;99.90;;;;;;5092076;28;20224;-49
2022/08/04 08:14:53;;;;;;;6.03;2.38;;;29.30;99.90;;;;;;5092124;28;20170;-48
2022/08/04 08:17:18;;;;;;;4.85;2.70;;;29.60;99.90;;;;;;5092114;28;20169;-48
2022/08/04 08:19:44;;;;;;;11.10;2.90;;;29.70;99.90;;;;;;5074026;28;20529;-48
2022/08/04 08:22:11;;;;;;;5.63;2.30;;;29.90;99.90;;;;;;5092025;28;20199;-47
2022/08/04 08:24:36;;;;;;;6.70;2.60;;;30.00;99.90;;;;;;5092032;28;20183;-49
2022/08/04 08:27:03;;;;;;;6.72;2.83;;;30.20;99.90;;;;;;5092273;28;20165;-49
2022/08/04 08:29:31;;;;;;;6.65;3.28;;;30.30;99.90;;;;;;5092050;28;20172;-49
2022/08/04 08:31:59;;;;;;;3.60;2.67;;;30.40;99.90;;;;;;5092134;28;20169;-50
2022/08/04 08:34:26;;;;;;;4.90;2.80;;;30.70;99.90;;;;;;5092008;28;20168;-48
2022/08/04 08:37:08;;;;;;;5.95;2.78;;;31.00;99.90;;;;;;5091903;28;20196;-48
2022/08/04 08:39:40;;;;;;;4.30;2.13;;;31.10;99.90;;;;;;5092224;28;20164;-48
2022/08/04 08:42:33;;;;;;;4.03;2.45;;;31.20;99.90;;;;;;5091788;28;20196;-48
2022/08/04 08:45:11;;;;;;;6.68;2.17;;;31.50;99.90;;;;;;5091827;28;20161;-48
2022/08/04 08:47:49;;;;;;;3.88;2.30;;;31.40;99.90;;;;;;5093734;28;20171;-49
2022/08/04 08:50:50;;;;;;;2.78;2.08;;;31.50;99.90;;;;;;5096116;28;20172;-50
2022/08/04 08:53:28;;;;;;;5.70;2.35;;;32.00;99.90;;;;;;5077800;28;20239;-49
2022/08/04 08:56:15;;;;;;;9.27;2.72;;;32.20;99.90;;;;;;5095757;28;20581;-53
2022/08/04 08:59:06;;;;;;;4.68;2.40;;;32.60;99.90;;;;;;5095719;28;20244;-52
2022/08/04 09:02:16;;;;;;;4.72;2.58;;;32.80;99.90;;;;;;5096097;28;20667;-52
2022/08/04 09:04:56;;;;;;;6.88;2.30;;;32.80;99.90;;;;;;5095688;28;20286;-55
2022/08/04 09:07:58;;;;;;;2.75;1.95;;;32.80;99.90;;;;;;5095593;28;20210;-53
2022/08/04 09:10:50;;;;;;;5.90;2.45;;;32.80;99.90;;;;;;5095501;28;20168;-53
2022/08/04 09:13:46;;;;;;;5.05;2.00;;;32.60;99.90;;;;;;5095298;28;20221;-54
2022/08/04 09:16:35;;;;;;;5.57;2.50;;;32.30;99.90;;;;;;5095368;28;20165;-54
2022/08/04 09:19:09;;;;;;;6.05;1.77;;;32.10;99.90;;;;;;5095811;28;20159;-51
2022/08/04 09:21:43;;;;;;;4.75;1.80;;;31.90;99.90;;;;;;5095336;28;20165;-49
2022/08/04 09:24:21;;;;;;;3.55;2.17;;;32.10;99.90;;;;;;5095707;28;20504;-54
2022/08/04 09:27:17;;;;;;;4.03;2.00;;;32.40;99.90;;;;;;5095490;28;20164;-53
2022/08/04 09:29:46;;;;;;;1.70;1.60;;;32.40;99.90;;;;;;5095186;28;20640;-47
2022/08/04 09:32:30;;;;;;;2.90;1.85;;;32.30;99.90;;;;;;5095042;28;20176;-48
2022/08/04 09:35:10;;;;;;;2.95;1.83;;;32.60;99.90;;;;;;5095026;28;20161;-49
2022/08/04 09:37:41;;;;;;;4.43;1.92;;;32.60;99.90;;;;;;5095114;28;20214;-49
2022/08/04 09:40:36;;;;;;;5.35;1.90;;;32.80;99.90;;;;;;5094841;28;20640;-48
2022/08/04 09:43:32;;;;;;;4.15;2.13;;;32.70;99.90;;;;;;5095473;28;20212;-49
2022/08/04 09:46:05;;;;;;;5.75;2.40;;;32.90;99.90;;;;;;5095138;28;20165;-48
2022/08/04 09:48:57;;;;;;;4.07;2.05;;;33.40;99.90;;;;;;5095223;28;20164;-48
2022/08/04 09:51:35;;;;;;;2.42;1.90;;;33.40;99.90;;;;;;5094756;28;20169;-48
2022/08/04 09:54:06;;;;;;;4.95;2.10;;;33.50;99.90;;;;;;5095090;28;20188;-49
2022/08/04 09:56:41;;;;;;;4.97;2.05;;;33.40;99.90;;;;;;5095069;28;20157;-49
2022/08/04 09:59:24;;;;;;;6.18;2.22;;;33.50;99.90;;;;;;5093815;28;20161;-47
2022/08/04 10:01:56;;;;;;;6.60;2.45;;;33.90;99.90;;;;;;5094501;28;20165;-48
2022/08/04 10:04:24;;;;;;;7.68;2.15;;;33.90;99.90;;;;;;5094502;28;20171;-49
2022/08/04 10:07:15;;;;;;;9.18;2.03;;;34.00;99.90;;;;;;5094650;28;20169;-48
2022/08/04 10:09:58;;;;;;;5.15;2.40;;;33.90;99.10;;;;;;5094590;28;20218;-48
2022/08/04 10:12:24;;;;;;;3.10;1.80;;;34.10;98.20;;;;;;5094259;28;20230;-49
2022/08/04 10:14:52;;;;;;;4.07;1.80;;;33.90;96.60;;;;;;5094316;28;20239;-49
2022/08/04 10:17:50;;;;;;;5.82;1.85;;;33.70;97.50;;;;;;5094556;28;20177;-47
2022/08/04 10:20:50;;;;;;;2.80;1.60;;;33.80;97.10;;;;;;5094260;28;20201;-48
2022/08/04 10:23:21;;;;;;;2.53;2.05;;;33.90;97.00;;;;;;5094351;28;20201;-47
2022/08/04 10:26:09;;;;;;;4.20;1.90;;;33.80;97.60;;;;;;5094141;28;20168;-49
2022/08/04 10:28:42;;;;;;;3.63;2.03;;;33.80;97.30;;;;;;5094009;28;20196;-48
2022/08/04 10:31:12;;;;;;;5.95;1.80;;;34.00;96.30;;;;;;5093989;28;20160;-48
2022/08/04 10:34:18;;;;;;;2.50;1.80;;;34.10;95.70;;;;;;5093991;28;20636;-49
2022/08/04 10:37:15;;;;;;;4.93;1.75;;;33.80;97.30;;;;;;5094163;28;20609;-48
2022/08/04 10:42:41;;;;;;;6.40;1.55;;;33.70;97.20;;;;;;5093970;28;20250;-48
2022/08/04 10:45:18;;;;;;;6.50;2.47;;;33.50;98.90;;;;;;5093977;28;20168;-48
2022/08/04 10:48:09;;;;;;;5.63;1.92;;;33.40;98.40;;;;;;5093598;28;20169;-47
2022/08/04 10:50:39;;;;;;;3.70;1.80;;;33.30;97.20;;;;;;5093629;28;20207;-48
2022/08/04 10:53:19;;;;;;;4.13;2.10;;;33.40;99.10;;;;;;5093580;28;20172;-47
2022/08/04 10:56:06;;;;;;;4.30;2.17;;;33.40;98.80;;;;;;5093720;28;20187;-50
2022/08/04 10:58:39;;;;;;;3.05;1.83;;;33.40;99.30;;;;;;5093820;28;20210;-48
2022/08/04 11:01:14;;;;;;;4.78;1.70;;;33.30;99.80;;;;;;5075183;28;20226;-47
2022/08/04 11:03:58;;;;;;;5.60;2.22;;;33.30;99.20;;;;;;5093271;28;20192;-47
2022/08/04 11:06:25;;;;;;;2.35;1.70;;;33.60;99.70;;;;;;5093236;28;20206;-47
2022/08/04 11:08:54;;;;;;;3.53;1.75;;;33.40;99.60;;;;;;5093192;28;20164;-47
2022/08/04 11:11:23;;;;;;;5.68;2.05;;;33.50;98.30;;;;;;5093172;28;20204;-48
2022/08/04 11:14:00;;;;;;;2.80;1.92;;;33.80;99.10;;;;;;5093295;28;20175;-48
2022/08/04 11:16:35;;;;;;;2.15;1.80;;;33.50;97.90;;;;;;5093124;28;20189;-47
2022/08/04 11:19:22;;;;;;;4.40;2.10;;;33.40;98.60;;;;;;5093524;28;20658;-48
2022/08/04 11:22:21;;;;;;;3.20;1.90;;;33.40;98.60;;;;;;5092854;28;20211;-49
2022/08/04 11:25:08;;;;;;;3.65;2.35;;;33.80;98.90;;;;;;5092973;28;20167;-47
2022/08/04 11:27:49;;;;;;;3.83;1.90;;;34.10;99.10;;;;;;5092945;28;20173;-47
2022/08/04 11:30:16;;;;;;;3.35;1.77;;;33.70;97.60;;;;;;5092906;28;20168;-48
2022/08/04 11:32:59;;;;;;;4.22;2.03;;;33.60;97.60;;;;;;5092959;28;20164;-48
2022/08/04 11:35:34;;;;;;;3.90;1.80;;;33.20;97.50;;;;;;5092820;28;20236;-48
2022/08/04 11:38:21;;;;;;;2.30;1.90;;;33.00;98.40;;;;;;5093410;28;20241;-50
2022/08/04 11:40:50;;;;;;;3.08;1.90;;;32.60;97.50;;;;;;5074548;28;20204;-48
2022/08/04 11:43:23;;;;;;;1.85;1.52;;;32.50;98.40;;;;;;5092573;28;20682;-48
2022/08/04 11:46:07;;;;;;;3.25;1.80;;;32.00;99.40;;;;;;5092586;28;20173;-48
2022/08/04 11:48:38;;;;;;;2.33;2.00;;;31.90;99.90;;;;;;5093044;28;20715;-48
2022/08/04 11:51:06;;;;;;;7.35;2.75;;;31.70;99.90;;;;;;5092606;28;20198;-47
2022/08/04 11:53:36;;;;;;;5.97;2.67;;;31.70;99.90;;;;;;5092956;28;20181;-49
2022/08/04 11:56:04;;;;;;;5.18;2.40;;;31.50;99.90;;;;;;5092749;28;20263;-49
2022/08/04 11:58:31;;;;;;;5.47;2.30;;;31.50;99.90;;;;;;5092775;28;20525;-48
2022/08/04 12:01:18;;;;;;;3.90;2.10;;;31.50;99.90;;;;;;5092321;28;20165;-48
2022/08/04 12:04:14;;;;;;;8.90;2.80;;;31.70;99.90;;;;;;5092460;28;20212;-48
2022/08/04 12:07:16;;;;;;;3.20;1.83;;;32.00;99.90;;;;;;5092333;28;20172;-48
2022/08/04 12:10:03;;;;;;;7.13;1.63;;;32.40;99.90;;;;;;5051058;28;20277;-49
2022/08/04 12:12:36;;;;;;;8.25;2.03;;;32.30;99.90;;;;;;5092252;28;20201;-48
2022/08/04 12:15:05;;;;;;;7.32;2.10;;;32.00;99.90;;;;;;5092416;28;20161;-48
2022/08/04 12:17:37;;;;;;;4.75;2.00;;;31.90;99.90;;;;;;5092439;28;20176;-48
2022/08/04 12:20:06;;;;;;;3.08;2.05;;;31.80;99.90;;;;;;5092544;28;20161;-49
2022/08/04 12:22:42;;;;;;;6.05;2.22;;;31.80;99.90;;;;;;5074297;28;20208;-47
2022/08/04 12:25:13;;;;;;;3.95;1.90;;;31.60;99.90;;;;;;5092040;28;20152;-49
2022/08/04 12:28:21;;;;;;;9.55;2.05;;;31.60;99.90;;;;;;5092090;28;20250;-48
2022/08/04 12:30:55;;;;;;;3.72;1.92;;;31.70;99.90;;;;;;5010107;28;20273;-47
2022/08/04 12:33:30;;;;;;;4.05;2.03;;;31.80;99.90;;;;;;5009988;28;20563;-47
2022/08/04 12:36:18;;;;;;;4.82;2.10;;;31.90;99.90;;;;;;5060626;28;20329;-48
2022/08/04 12:38:51;;;;;;;5.07;2.00;;;32.10;99.90;;;;;;5091943;28;20183;-48
2022/08/04 12:41:24;;;;;;;5.25;1.98;;;32.40;99.90;;;;;;5091920;28;20547;-51
2022/08/04 12:43:51;;;;;;;3.35;1.80;;;32.70;99.90;;;;;;5091783;28;20246;-48
2022/08/04 12:46:23;;;;;;;8.55;2.58;;;32.80;99.90;;;;;;5092059;28;20271;-48
2022/08/04 12:48:50;;;;;;;4.38;2.20;;;32.90;99.90;;;;;;5092079;28;20524;-48
2022/08/04 12:51:17;;;;;;;5.03;2.80;;;32.80;99.90;;;;;;5091814;28;20168;-48
2022/08/04 12:53:43;;;;;;;1.90;1.80;;;32.80;99.90;;;;;;5091773;28;20168;-49
2022/08/04 12:56:11;;;;;;;3.53;2.35;;;32.80;99.90;;;;;;5091768;28;20218;-49
2022/08/04 12:58:41;;;;;;;2.47;2.00;;;32.90;99.90;;;;;;5091764;28;20168;-49
2022/08/04 13:01:10;;;;;;;5.97;2.25;;;32.70;99.90;;;;;;5091773;28;20255;-49
2022/08/04 13:04:11;;;;;;;5.07;2.08;;;32.80;99.90;;;;;;5091744;28;20283;-48
2022/08/04 13:06:40;;;;;;;5.93;2.92;;;32.80;99.90;;;;;;5077895;28;20176;-48
2022/08/04 13:09:28;;;;;;;7.18;2.65;;;32.80;99.90;;;;;;5091959;28;20226;-48
2022/08/04 13:11:57;;;;;;;6.97;2.63;;;32.80;99.90;;;;;;5091420;28;20231;-50
2022/08/04 13:14:27;;;;;;;11.27;3.33;;;32.70;99.90;;;;;;5091835;28;20226;-48
2022/08/04 13:16:59;;;;;;;7.72;3.03;;;32.50;99.90;;;;;;5091933;28;20196;-48
2022/08/04 13:19:26;;;;;;;4.28;2.50;;;32.50;99.90;;;;;;5091558;28;20163;-48
2022/08/04 13:21:53;;;;;;;5.28;2.40;;;32.60;99.90;;;;;;5091751;28;20207;-48
2022/08/04 13:24:21;;;;;;;4.45;2.83;;;32.80;99.90;;;;;;5091509;28;20165;-49
2022/08/04 13:26:58;;;;;;;5.10;2.30;;;33.10;99.90;;;;;;5091527;28;20165;-47
2022/08/04 13:29:34;;;;;;;4.97;2.50;;;33.10;99.90;;;;;;5091661;28;20237;-48
2022/08/04 13:32:00;;;;;;;6.30;2.35;;;33.20;99.90;;;;;;5073904;28;20167;-48
2022/08/04 13:34:27;;;;;;;4.10;2.72;;;33.10;99.90;;;;;;5092958;28;20168;-47
2022/08/04 13:36:55;;;;;;;3.00;2.15;;;33.00;99.90;;;;;;5076831;28;20530;-48
2022/08/04 13:39:22;;;;;;;6.25;2.40;;;32.90;99.90;;;;;;5095251;28;20248;-47
2022/08/04 13:41:52;;;;;;;5.78;2.30;;;32.80;99.90;;;;;;5095129;28;20500;-49
2022/08/04 13:44:22;;;;;;;6.20;2.00;;;32.80;99.90;;;;;;5095185;28;20259;-48